Thunderstorms From: 15-12-2017 06:00 Until: 16-12-2017 06:00 warning for: Thunderstorms Level: Yellow info button

Although rather usual in this region, locally or potentially dangerous phenomena are expected. (such as local winds, summer thunderstorms, rising streams or high waves) Be aware and pay attention to the latest weather updates, especially if you carry out activities exposed to weather or close to a stream or shoreline. 


Meteo18 Weather Cam more information Meteo18 Weather Cam


warning for Thunderstorms more information blitzortung!


Rain radar more information rain snow radar


Visit our other weather sites:

Template documentation
and downloads

And another site



Weather Underground History page Text

Daily Summary for August 19, 2016 Units:  Metric    English   Both
« Previous Day
Next Day »
Daily Weekly Monthly Yearly Custom
  High: Low: Average:
Temperature: 24.1 °C 9.7 °C 18.5 °C
Dew Point: 15.1 °C 8.6 °C 12.3 °C
Humidity: 95 % 46 % 70 %
Wind Speed: 19.3 km/h 0.0 km/h 3.2 km/h
Wind Gust: 24.1 km/h - -
Wind:- - SW
Pressure: 1012.4 hPa 1009.4 hPa -
Precipitation: 0.0 mm    
Historical Graphs
 
 
Tabular Data for August 19, 2016
Time Temperature Dew Point Pressure Wind Wind Speed Wind Gust Humidity Rainfall Rate (Hourly)
00:02 14.4 °C 11.4 °C 1011.4 hPa Calm     82 % 0.0 mm
00:12 14.1 °C 11.1 °C 1011.4 hPa Calm     82 % 0.0 mm
00:17 14.0 °C 11.2 °C 1011.4 hPa Calm     83 % 0.0 mm
00:22 14.1 °C 11.3 °C 1011.4 hPa Calm   1.6 km/h 83 % 0.0 mm
00:27 14.2 °C 11.2 °C 1011.4 hPa Calm   1.6 km/h 82 % 0.0 mm
00:32 14.1 °C 11.1 °C 1011.4 hPa Calm   1.6 km/h 82 % 0.0 mm
00:42 13.8 °C 11.0 °C 1011.1 hPa Calm     83 % 0.0 mm
00:52 13.6 °C 10.8 °C 1011.1 hPa Calm   1.6 km/h 83 % 0.0 mm
00:57 13.4 °C 10.4 °C 1011.1 hPa Calm   1.6 km/h 82 % 0.0 mm
01:02 13.3 °C 10.3 °C 1011.1 hPa Calm   1.6 km/h 82 % 0.0 mm
01:07 13.1 °C 10.3 °C 1011.1 hPa Calm     83 % 0.0 mm
01:12 13.0 °C 10.4 °C 1011.1 hPa Calm     84 % 0.0 mm
01:17 12.9 °C 10.4 °C 1011.4 hPa Calm     85 % 0.0 mm
01:22 12.8 °C 10.3 °C 1011.1 hPa Calm     85 % 0.0 mm
01:32 12.8 °C 10.7 °C 1011.4 hPa Calm     87 % 0.0 mm
01:37 12.8 °C 10.7 °C 1011.1 hPa Calm     87 % 0.0 mm
01:42 12.8 °C 10.7 °C 1011.1 hPa Calm     87 % 0.0 mm
01:47 12.8 °C 10.7 °C 1011.1 hPa Calm     87 % 0.0 mm
01:57 12.6 °C 10.5 °C 1011.4 hPa Calm     87 % 0.0 mm
02:02 12.4 °C 10.3 °C 1011.4 hPa Calm     87 % 0.0 mm
02:07 12.4 °C 10.6 °C 1011.4 hPa Calm     89 % 0.0 mm
02:17 12.4 °C 10.6 °C 1011.1 hPa Calm     89 % 0.0 mm
02:22 12.3 °C 10.4 °C 1011.1 hPa Calm     88 % 0.0 mm
02:32 12.2 °C 10.4 °C 1011.1 hPa Calm   1.6 km/h 89 % 0.0 mm
02:37 12.2 °C 10.4 °C 1011.1 hPa Calm     89 % 0.0 mm
02:42 12.2 °C 10.4 °C 1011.1 hPa Calm     89 % 0.0 mm
02:52 12.2 °C 10.6 °C 1011.1 hPa Calm   1.6 km/h 90 % 0.0 mm
02:57 12.1 °C 10.3 °C 1011.1 hPa Calm   1.6 km/h 89 % 0.0 mm
03:02 12.0 °C 10.2 °C 1011.1 hPa Calm   1.6 km/h 89 % 0.0 mm
03:12 11.8 °C 10.2 °C 1011.1 hPa Calm     90 % 0.0 mm
03:17 11.8 °C 10.4 °C 1011.1 hPa Calm     91 % 0.0 mm
03:22 11.8 °C 10.4 °C 1010.7 hPa Calm     91 % 0.0 mm
03:32 11.9 °C 10.5 °C 1010.7 hPa Calm   1.6 km/h 91 % 0.0 mm
03:42 11.8 °C 10.4 °C 1010.7 hPa Calm     91 % 0.0 mm
03:52 11.6 °C 10.0 °C 1010.7 hPa Calm     90 % 0.0 mm
03:57 11.4 °C 10.0 °C 1010.7 hPa Calm     91 % 0.0 mm
04:02 11.4 °C 10.0 °C 1010.7 hPa Calm     91 % 0.0 mm
04:07 11.3 °C 10.0 °C 1010.7 hPa Calm     92 % 0.0 mm
04:12 11.2 °C 9.9 °C 1010.7 hPa Calm     92 % 0.0 mm
04:17 11.1 °C 9.8 °C 1010.7 hPa Calm     92 % 0.0 mm
04:22 11.1 °C 10.0 °C 1010.7 hPa Calm     93 % 0.0 mm
04:27 11.1 °C 10.0 °C 1010.7 hPa Calm     93 % 0.0 mm
04:32 11.1 °C 10.0 °C 1010.7 hPa Calm     93 % 0.0 mm
04:37 10.9 °C 9.7 °C 1010.7 hPa Calm     92 % 0.0 mm
04:42 10.9 °C 9.7 °C 1010.7 hPa Calm     92 % 0.0 mm
04:52 10.9 °C 9.8 °C 1010.7 hPa SSW 3.2 km/h   93 % 0.0 mm
05:02 11.2 °C 10.1 °C 1010.7 hPa Calm   3.2 km/h 93 % 0.0 mm
05:07 11.1 °C 9.8 °C 1010.7 hPa Calm   3.2 km/h 92 % 0.0 mm
05:17 11.0 °C 9.8 °C 1010.7 hPa Calm   1.6 km/h 92 % 0.0 mm
05:22 10.9 °C 9.7 °C 1010.7 hPa Calm     92 % 0.0 mm
05:32 10.9 °C 9.8 °C 1010.7 hPa Calm     93 % 0.0 mm
05:42 10.7 °C 9.6 °C 1010.4 hPa Calm     93 % 0.0 mm
05:52 10.7 °C 9.6 °C 1010.4 hPa Calm     93 % 0.0 mm
06:02 10.4 °C 9.2 °C 1010.4 hPa Calm     92 % 0.0 mm
06:12 10.1 °C 9.0 °C 1010.4 hPa Calm     93 % 0.0 mm
06:17 10.1 °C 9.0 °C 1010.4 hPa Calm     93 % 0.0 mm
06:22 9.9 °C 8.8 °C 1010.4 hPa Calm     93 % 0.0 mm
06:32 9.7 °C 8.6 °C 1010.4 hPa Calm     93 % 0.0 mm
06:42 9.8 °C 8.9 °C 1010.4 hPa Calm     94 % 0.0 mm
06:52 10.0 °C 9.1 °C 1010.4 hPa Calm     94 % 0.0 mm
07:02 10.1 °C 9.3 °C 1010.4 hPa Calm     95 % 0.0 mm
07:12 10.4 °C 9.6 °C 1010.7 hPa Calm     95 % 0.0 mm
07:17 10.3 °C 9.4 °C 1010.7 hPa Calm     94 % 0.0 mm
07:22 10.7 °C 9.9 °C 1010.7 hPa Calm     95 % 0.0 mm
07:32 11.1 °C 10.2 °C 1010.7 hPa Calm     94 % 0.0 mm
07:42 11.0 °C 9.9 °C 1010.7 hPa Calm     93 % 0.0 mm
07:52 10.9 °C 9.8 °C 1010.4 hPa Calm     93 % 0.0 mm
07:57 10.9 °C 9.8 °C 1010.4 hPa Calm     93 % 0.0 mm
08:02 11.1 °C 10.2 °C 1010.7 hPa Calm     94 % 0.0 mm
08:12 11.4 °C 10.3 °C 1010.4 hPa Calm     93 % 0.0 mm
08:22 11.9 °C 10.8 °C 1010.7 hPa Calm     93 % 0.0 mm
08:32 12.4 °C 10.8 °C 1010.7 hPa Calm     90 % 0.0 mm
08:42 13.4 °C 11.6 °C 1010.7 hPa Calm   3.2 km/h 89 % 0.0 mm
08:52 14.1 °C 11.6 °C 1010.4 hPa Calm     85 % 0.0 mm
09:02 14.2 °C 11.5 °C 1010.7 hPa Calm   3.2 km/h 84 % 0.0 mm
09:12 14.7 °C 12.0 °C 1010.7 hPa Calm   3.2 km/h 84 % 0.0 mm
09:22 15.0 °C 12.0 °C 1010.7 hPa Calm   3.2 km/h 82 % 0.0 mm
09:32 15.8 °C 12.5 °C 1010.4 hPa SSW 3.2 km/h 4.8 km/h 81 % 0.0 mm
09:42 16.3 °C 12.5 °C 1010.4 hPa Calm   4.8 km/h 78 % 0.0 mm
09:52 16.7 °C 13.0 °C 1010.4 hPa Calm   8.0 km/h 79 % 0.0 mm
10:02 16.8 °C 12.7 °C 1010.4 hPa SW 1.6 km/h 8.0 km/h 77 % 0.0 mm
10:12 17.2 °C 13.1 °C 1010.4 hPa SE 1.6 km/h 8.0 km/h 77 % 0.0 mm
10:22 17.4 °C 13.3 °C 1010.4 hPa Calm   8.0 km/h 77 % 0.0 mm
10:32 17.8 °C 13.5 °C 1010.4 hPa SSW 3.2 km/h 6.4 km/h 76 % 0.0 mm
10:42 18.1 °C 13.6 °C 1010.4 hPa Calm   8.0 km/h 75 % 0.0 mm
10:47 18.3 °C 13.6 °C 1010.4 hPa SSE 3.2 km/h 8.0 km/h 74 % 0.0 mm
10:57 18.8 °C 13.9 °C 1010.4 hPa SE 1.6 km/h 9.7 km/h 73 % 0.0 mm
11:02 18.9 °C 14.0 °C 1010.4 hPa SSE 1.6 km/h 6.4 km/h 73 % 0.0 mm
11:07 18.9 °C 13.5 °C 1010.4 hPa SSE 1.6 km/h 8.0 km/h 71 % 0.0 mm
11:12 19.1 °C 13.5 °C 1010.4 hPa Calm   8.0 km/h 70 % 0.0 mm
11:17 19.2 °C 13.6 °C 1010.7 hPa SSW 4.8 km/h 9.7 km/h 70 % 0.0 mm
11:22 19.4 °C 13.8 °C 1010.7 hPa SSW 3.2 km/h 9.7 km/h 70 % 0.0 mm
11:27 19.7 °C 13.6 °C 1010.7 hPa SSE 8.0 km/h 9.7 km/h 68 % 0.0 mm
11:32 20.0 °C 13.9 °C 1010.4 hPa Calm   9.7 km/h 68 % 0.0 mm
11:37 20.6 °C 14.3 °C 1010.4 hPa SE 3.2 km/h 9.7 km/h 67 % 0.0 mm
11:42 20.9 °C 14.1 °C 1010.4 hPa ESE 3.2 km/h 9.7 km/h 65 % 0.0 mm
11:52 21.1 °C 14.0 °C 1010.4 hPa SSW 3.2 km/h 12.9 km/h 64 % 0.0 mm
11:57 21.1 °C 13.8 °C 1010.4 hPa SW 9.7 km/h 12.9 km/h 63 % 0.0 mm
12:02 21.0 °C 13.7 °C 1010.4 hPa South 8.0 km/h 16.1 km/h 63 % 0.0 mm
12:12 21.1 °C 14.0 °C 1010.4 hPa South 8.0 km/h 16.1 km/h 64 % 0.0 mm
12:17 21.7 °C 14.1 °C 1010.4 hPa SW 9.7 km/h 16.1 km/h 62 % 0.0 mm
12:27 21.8 °C 13.9 °C 1010.4 hPa SSE 6.4 km/h 16.1 km/h 61 % 0.0 mm
12:32 22.0 °C 13.4 °C 1010.4 hPa SW 6.4 km/h 16.1 km/h 58 % 0.0 mm
12:42 22.6 °C 14.2 °C 1010.0 hPa SSW 6.4 km/h 16.1 km/h 59 % 0.0 mm
12:47 22.8 °C 13.8 °C 1010.0 hPa SW 4.8 km/h 14.5 km/h 57 % 0.0 mm
12:52 22.8 °C 12.4 °C 1010.4 hPa SSE 12.9 km/h 20.9 km/h 52 % 0.0 mm
12:57 22.9 °C 13.1 °C 1010.4 hPa SSW 9.7 km/h 20.9 km/h 54 % 0.0 mm
13:02 22.9 °C 12.8 °C 1010.0 hPa SW 12.9 km/h 20.9 km/h 53 % 0.0 mm
13:12 23.2 °C 12.5 °C 1010.0 hPa WSW 16.1 km/h 19.3 km/h 51 % 0.0 mm
13:17 23.2 °C 12.2 °C 1010.0 hPa WSW 12.9 km/h 17.7 km/h 50 % 0.0 mm
13:22 23.2 °C 12.2 °C 1010.0 hPa WSW 9.7 km/h 20.9 km/h 50 % 0.0 mm
13:32 23.1 °C 11.8 °C 1010.0 hPa SW 9.7 km/h 20.9 km/h 49 % 0.0 mm
13:42 23.5 °C 11.5 °C 1010.0 hPa SW 12.9 km/h 20.9 km/h 47 % 0.0 mm
13:52 23.3 °C 11.0 °C 1010.0 hPa SW 4.8 km/h 20.9 km/h 46 % 0.0 mm
14:02 23.4 °C 11.1 °C 1010.4 hPa South 4.8 km/h 20.9 km/h 46 % 0.0 mm
14:12 23.7 °C 11.7 °C 1010.4 hPa West 4.8 km/h 20.9 km/h 47 % 0.0 mm
14:17 23.7 °C 11.7 °C 1010.0 hPa WSW 9.7 km/h 17.7 km/h 47 % 0.0 mm
14:22 23.8 °C 11.8 °C 1010.0 hPa SSW 9.7 km/h 17.7 km/h 47 % 0.0 mm
14:27 23.8 °C 11.5 °C 1010.4 hPa WSW 14.5 km/h 22.5 km/h 46 % 0.0 mm
14:32 23.7 °C 11.7 °C 1010.4 hPa SW 8.0 km/h 22.5 km/h 47 % 0.0 mm
14:37 23.9 °C 11.9 °C 1010.4 hPa SSW 3.2 km/h 22.5 km/h 47 % 0.0 mm
14:42 24.1 °C 12.1 °C 1010.4 hPa SSW 8.0 km/h 19.3 km/h 47 % 0.0 mm
14:47 24.0 °C 11.7 °C 1010.4 hPa West 16.1 km/h 16.1 km/h 46 % 0.0 mm
14:52 23.8 °C 11.5 °C 1010.4 hPa West 9.7 km/h 19.3 km/h 46 % 0.0 mm
14:57 23.8 °C 11.5 °C 1010.4 hPa SSW 11.3 km/h 19.3 km/h 46 % 0.0 mm
15:02 23.6 °C 11.3 °C 1010.4 hPa SW 12.9 km/h 19.3 km/h 46 % 0.0 mm
15:12 23.8 °C 11.8 °C 1010.4 hPa SW 8.0 km/h 19.3 km/h 47 % 0.0 mm
15:17 23.8 °C 11.8 °C 1010.4 hPa SSW 17.7 km/h 22.5 km/h 47 % 0.0 mm
15:22 23.8 °C 11.8 °C 1010.4 hPa SW 11.3 km/h 22.5 km/h 47 % 0.0 mm
15:27 23.7 °C 11.7 °C 1010.4 hPa SW 19.3 km/h 22.5 km/h 47 % 0.0 mm
15:32 23.8 °C 12.1 °C 1010.4 hPa WSW 8.0 km/h 24.1 km/h 48 % 0.0 mm
15:37 23.8 °C 12.1 °C 1010.4 hPa SW 6.4 km/h 24.1 km/h 48 % 0.0 mm
15:42 23.7 °C 12.0 °C 1010.4 hPa SW 9.7 km/h 22.5 km/h 48 % 0.0 mm
15:47 23.7 °C 12.4 °C 1010.4 hPa SW 9.7 km/h 22.5 km/h 49 % 0.0 mm
15:52 23.7 °C 12.4 °C 1010.4 hPa SSW 1.6 km/h 22.5 km/h 49 % 0.0 mm
15:57 23.8 °C 12.4 °C 1010.4 hPa WSW 6.4 km/h 19.3 km/h 49 % 0.0 mm
16:02 23.7 °C 12.4 °C 1010.4 hPa WSW 3.2 km/h 19.3 km/h 49 % 0.0 mm
16:07 23.8 °C 12.8 °C 1010.0 hPa SSW 1.6 km/h 19.3 km/h 50 % 0.0 mm
16:12 23.8 °C 12.8 °C 1010.0 hPa WSW 4.8 km/h 19.3 km/h 50 % 0.0 mm
16:17 23.7 °C 12.4 °C 1010.0 hPa SSW 4.8 km/h 19.3 km/h 49 % 0.0 mm
16:22 23.5 °C 12.5 °C 1009.7 hPa SW 11.3 km/h 16.1 km/h 50 % 0.0 mm
16:27 23.4 °C 12.1 °C 1009.7 hPa WSW 8.0 km/h 16.1 km/h 49 % 0.0 mm
16:32 23.4 °C 12.1 °C 1009.7 hPa South 4.8 km/h 17.7 km/h 49 % 0.0 mm
16:37 23.4 °C 12.4 °C 1009.7 hPa WSW 9.7 km/h 17.7 km/h 50 % 0.0 mm
16:42 23.4 °C 12.7 °C 1010.0 hPa West 8.0 km/h 17.7 km/h 51 % 0.0 mm
16:47 23.4 °C 13.0 °C 1009.7 hPa SW 3.2 km/h 16.1 km/h 52 % 0.0 mm
16:52 23.5 °C 13.1 °C 1009.7 hPa SW 8.0 km/h 16.1 km/h 52 % 0.0 mm
16:57 23.6 °C 13.2 °C 1009.7 hPa WSW 9.7 km/h 16.1 km/h 52 % 0.0 mm
17:02 23.6 °C 13.5 °C 1009.7 hPa SSW 3.2 km/h 16.1 km/h 53 % 0.0 mm
17:12 23.7 °C 13.6 °C 1009.7 hPa South 4.8 km/h 14.5 km/h 53 % 0.0 mm
17:17 23.8 °C 13.6 °C 1009.4 hPa South 4.8 km/h 14.5 km/h 53 % 0.0 mm
17:27 23.8 °C 13.9 °C 1010.0 hPa West 9.7 km/h 14.5 km/h 54 % 0.0 mm
17:32 23.8 °C 13.9 °C 1009.7 hPa SW 3.2 km/h 14.5 km/h 54 % 0.0 mm
17:37 23.8 °C 13.9 °C 1009.7 hPa SW 8.0 km/h 14.5 km/h 54 % 0.0 mm
17:42 23.8 °C 13.9 °C 1010.0 hPa SW 14.5 km/h 14.5 km/h 54 % 0.0 mm
17:52 23.8 °C 14.2 °C 1010.0 hPa SW 8.0 km/h 19.3 km/h 55 % 0.0 mm
17:57 23.7 °C 14.1 °C 1010.0 hPa SW 12.9 km/h 20.9 km/h 55 % 0.0 mm
18:02 23.5 °C 14.5 °C 1010.0 hPa SSW 6.4 km/h 20.9 km/h 57 % 0.0 mm
18:07 23.4 °C 14.4 °C 1010.0 hPa WSW 11.3 km/h 20.9 km/h 57 % 0.0 mm
18:12 23.4 °C 14.9 °C 1010.0 hPa SSW 9.7 km/h 17.7 km/h 59 % 0.0 mm
18:17 23.3 °C 14.8 °C 1010.0 hPa South 6.4 km/h 17.7 km/h 59 % 0.0 mm
18:22 23.3 °C 14.8 °C 1010.0 hPa SSW 8.0 km/h 17.7 km/h 59 % 0.0 mm
18:32 23.3 °C 15.1 °C 1010.4 hPa SW 11.3 km/h 16.1 km/h 60 % 0.0 mm
18:42 23.3 °C 14.8 °C 1010.4 hPa SW 11.3 km/h 17.7 km/h 59 % 0.0 mm
18:57 23.3 °C 14.8 °C 1010.4 hPa WSW 3.2 km/h 17.7 km/h 59 % 0.0 mm
19:02 23.2 °C 15.0 °C 1010.4 hPa SW 3.2 km/h 14.5 km/h 60 % 0.0 mm
19:12 23.2 °C 15.0 °C 1010.4 hPa WSW 8.0 km/h 11.3 km/h 60 % 0.0 mm
19:18 23.1 °C 14.6 °C 1010.7 hPa West 4.8 km/h 11.3 km/h 59 % 0.0 mm
19:27 23.1 °C 13.8 °C 1010.4 hPa WNW 6.4 km/h 11.3 km/h 56 % 0.0 mm
19:32 23.1 °C 13.6 °C 1010.7 hPa West 3.2 km/h 11.3 km/h 55 % 0.0 mm
19:37 23.1 °C 13.6 °C 1010.4 hPa WSW 1.6 km/h 11.3 km/h 55 % 0.0 mm
19:42 23.0 °C 13.5 °C 1010.0 hPa WSW 4.8 km/h 11.3 km/h 55 % 0.0 mm
19:52 22.9 °C 13.7 °C 1010.4 hPa West 3.2 km/h 8.0 km/h 56 % 0.0 mm
19:57 22.9 °C 13.7 °C 1010.7 hPa WSW 1.6 km/h 9.7 km/h 56 % 0.0 mm
20:02 22.9 °C 13.9 °C 1010.4 hPa WNW 3.2 km/h 9.7 km/h 57 % 0.0 mm
20:12 22.8 °C 13.8 °C 1010.4 hPa WSW 3.2 km/h 9.7 km/h 57 % 0.0 mm
20:17 22.8 °C 14.1 °C 1010.7 hPa West 3.2 km/h 8.0 km/h 58 % 0.0 mm
20:22 22.8 °C 14.1 °C 1010.7 hPa SW 4.8 km/h 8.0 km/h 58 % 0.0 mm
20:27 22.7 °C 14.0 °C 1010.7 hPa WSW 1.6 km/h 8.0 km/h 58 % 0.0 mm
20:32 22.7 °C 14.0 °C 1010.7 hPa Calm   8.0 km/h 58 % 0.0 mm
20:37 22.6 °C 13.9 °C 1010.7 hPa WSW 1.6 km/h 8.0 km/h 58 % 0.0 mm
20:42 22.6 °C 14.2 °C 1010.7 hPa Calm   8.0 km/h 59 % 0.0 mm
20:47 22.5 °C 14.1 °C 1010.7 hPa WSW 3.2 km/h 6.4 km/h 59 % 0.0 mm
20:52 22.4 °C 14.0 °C 1010.7 hPa Calm   6.4 km/h 59 % 0.0 mm
20:57 22.4 °C 14.3 °C 1010.7 hPa Calm   4.8 km/h 60 % 0.0 mm
21:02 22.3 °C 14.2 °C 1011.1 hPa Calm   4.8 km/h 60 % 0.0 mm
21:12 22.2 °C 14.3 °C 1011.1 hPa Calm     61 % 0.0 mm
21:17 22.2 °C 14.3 °C 1011.1 hPa Calm     61 % 0.0 mm
21:22 22.1 °C 14.5 °C 1011.1 hPa Calm     62 % 0.0 mm
21:32 22.0 °C 14.4 °C 1011.1 hPa Calm   6.4 km/h 62 % 0.0 mm
21:37 21.9 °C 14.3 °C 1011.4 hPa Calm   6.4 km/h 62 % 0.0 mm
21:42 21.8 °C 14.2 °C 1011.4 hPa Calm   4.8 km/h 62 % 0.0 mm
21:47 21.8 °C 14.4 °C 1011.4 hPa Calm   1.6 km/h 63 % 0.0 mm
21:52 21.7 °C 14.3 °C 1011.4 hPa Calm   1.6 km/h 63 % 0.0 mm
21:57 21.6 °C 14.3 °C 1011.4 hPa Calm     63 % 0.0 mm
22:02 21.6 °C 14.5 °C 1011.4 hPa Calm     64 % 0.0 mm
22:12 21.4 °C 14.3 °C 1011.7 hPa Calm   4.8 km/h 64 % 0.0 mm
22:17 21.4 °C 14.5 °C 1011.7 hPa Calm   4.8 km/h 65 % 0.0 mm
22:22 21.4 °C 14.5 °C 1011.7 hPa Calm   4.8 km/h 65 % 0.0 mm
22:27 21.3 °C 14.5 °C 1011.7 hPa Calm   4.8 km/h 65 % 0.0 mm
22:32 21.2 °C 14.4 °C 1012.1 hPa Calm   4.8 km/h 65 % 0.0 mm
22:37 21.2 °C 14.6 °C 1012.1 hPa Calm     66 % 0.0 mm
22:42 21.1 °C 14.5 °C 1012.1 hPa Calm     66 % 0.0 mm
22:52 20.9 °C 14.3 °C 1012.1 hPa Calm     66 % 0.0 mm
23:02 20.8 °C 14.7 °C 1012.1 hPa Calm     68 % 0.0 mm
23:07 20.7 °C 14.6 °C 1012.1 hPa Calm     68 % 0.0 mm
23:17 20.5 °C 14.6 °C 1012.1 hPa Calm     69 % 0.0 mm
23:22 20.3 °C 14.4 °C 1012.1 hPa Calm   3.2 km/h 69 % 0.0 mm
23:27 20.2 °C 14.6 °C 1012.4 hPa Calm   3.2 km/h 70 % 0.0 mm
23:32 20.2 °C 14.6 °C 1012.4 hPa Calm   3.2 km/h 70 % 0.0 mm
23:42 20.2 °C 14.3 °C 1012.4 hPa Calm     69 % 0.0 mm
23:47 20.1 °C 14.5 °C 1012.1 hPa Calm     70 % 0.0 mm
23:52 20.1 °C 14.5 °C 1012.1 hPa Calm     70 % 0.0 mm
23:57 20.1 °C 14.5 °C 1012.4 hPa Calm     70 % 0.0 mm
Meteo18
Compliments of Weather Underground - 4 mb

Script developed by  Jim McMurry - jmcmurry@mwt.net Adapted for the template by  Wim van der Kuil - Leuven-Template.eu

You find our weather info also at:

European Weather Network

Weather Underground

Equipment we use:

Weather-station
Davis Vue

Weather-program
Meteohub

Weather-server
Raspberry PI 2 B+

Provider
1 and 1

Davis Vue

Meteohub

Raspberry PI 2 B+

1 and 1